createdAt,value
2023-05-04T00:02:02.342Z,45.31
2023-05-04T00:04:28.733Z,45.55
2023-05-04T00:06:55.109Z,45.43
2023-05-04T00:09:21.461Z,45.36
2023-05-04T00:11:47.794Z,45.41
2023-05-04T00:14:14.199Z,45.41
2023-05-04T00:16:40.571Z,45.33
2023-05-04T00:19:07.154Z,45.42
2023-05-04T00:21:33.530Z,45.48
2023-05-04T00:23:59.879Z,45.56
2023-05-04T00:26:26.641Z,45.54
2023-05-04T00:28:53.026Z,45.54
2023-05-04T00:31:19.493Z,45.46
2023-05-04T00:33:46.023Z,45.34
2023-05-04T00:36:13.911Z,45.56
2023-05-04T00:38:50.122Z,45.55
2023-05-04T00:41:17.453Z,45.50
2023-05-04T00:43:43.970Z,45.33
2023-05-04T00:46:10.516Z,45.35
2023-05-04T00:48:37.016Z,45.41
2023-05-04T00:51:03.419Z,45.50
2023-05-04T00:53:29.768Z,45.67
2023-05-04T00:55:56.166Z,45.48
2023-05-04T00:58:22.530Z,45.57
2023-05-04T01:00:49.012Z,45.58
2023-05-04T01:03:15.574Z,45.44
2023-05-04T01:05:43.237Z,45.72
2023-05-04T01:08:17.668Z,45.45
2023-05-04T01:10:47.784Z,45.60
2023-05-04T01:13:15.061Z,45.53
2023-05-04T01:15:41.675Z,45.73
2023-05-04T01:18:08.143Z,45.55
2023-05-04T01:20:34.558Z,45.76
2023-05-04T01:23:01.876Z,45.41
2023-05-04T01:25:33.655Z,45.58
2023-05-04T01:28:02.506Z,45.53
2023-05-04T01:30:30.044Z,45.55
2023-05-04T01:32:57.534Z,45.46
2023-05-04T01:35:23.930Z,45.75
2023-05-04T01:37:50.282Z,45.54
2023-05-04T01:40:17.886Z,45.49
2023-05-04T01:42:44.242Z,45.60
2023-05-04T01:45:11.686Z,45.49
2023-05-04T01:47:38.080Z,45.68
2023-05-04T01:50:05.706Z,45.46
2023-05-04T01:52:32.302Z,45.66
2023-05-04T01:54:58.630Z,45.68
2023-05-04T01:57:25.307Z,45.64
2023-05-04T01:59:52.538Z,45.71
2023-05-04T02:02:18.938Z,45.70
2023-05-04T02:04:45.357Z,45.75
2023-05-04T02:07:13.785Z,45.56
2023-05-04T02:09:42.256Z,45.53
2023-05-04T02:12:09.235Z,45.61
2023-05-04T02:14:35.651Z,45.47
2023-05-04T02:17:03.378Z,45.35
2023-05-04T02:19:29.775Z,45.48
2023-05-04T02:21:56.188Z,45.45
2023-05-04T02:24:22.538Z,45.55
2023-05-04T02:26:49.225Z,45.45
2023-05-04T02:29:16.070Z,45.32
2023-05-04T02:31:42.502Z,45.60
2023-05-04T02:34:08.921Z,45.52
2023-05-04T02:36:40.605Z,45.49
2023-05-04T02:39:07.942Z,45.45
2023-05-04T02:41:34.305Z,45.70
2023-05-04T02:44:00.652Z,45.58
2023-05-04T02:46:27.006Z,45.72
2023-05-04T02:48:53.375Z,45.65
2023-05-04T02:51:19.758Z,45.35
2023-05-04T02:53:46.144Z,45.55
2023-05-04T02:56:12.495Z,45.63
2023-05-04T02:58:38.865Z,45.38
2023-05-04T03:01:05.264Z,45.54
2023-05-04T03:03:31.858Z,45.48
2023-05-04T03:05:58.722Z,45.40
2023-05-04T03:08:25.047Z,45.49
2023-05-04T03:10:51.532Z,45.52
2023-05-04T03:13:17.955Z,45.45
2023-05-04T03:15:44.566Z,45.51
2023-05-04T03:18:11.105Z,45.62
2023-05-04T03:20:37.783Z,45.51
2023-05-04T03:23:04.128Z,45.24
2023-05-04T03:25:30.615Z,45.42
2023-05-04T03:27:57.341Z,45.33
2023-05-04T03:30:23.926Z,45.28
2023-05-04T03:32:50.332Z,45.53
2023-05-04T03:35:24.076Z,45.25
2023-05-04T03:37:51.177Z,45.48
2023-05-04T03:40:22.301Z,45.35
2023-05-04T03:42:49.866Z,45.29
2023-05-04T03:45:16.418Z,45.52
2023-05-04T03:47:42.915Z,45.32
2023-05-04T03:50:09.671Z,45.28
2023-05-04T03:52:36.059Z,45.27
2023-05-04T03:55:02.933Z,45.29
2023-05-04T03:57:29.314Z,45.43
2023-05-04T03:59:57.830Z,45.24
2023-05-04T04:02:25.348Z,45.29
2023-05-04T04:04:51.790Z,45.43
2023-05-04T04:07:18.509Z,45.45
2023-05-04T04:09:44.920Z,45.48
2023-05-04T04:12:11.312Z,45.29
2023-05-04T04:14:37.659Z,45.41
2023-05-04T04:17:04.017Z,45.31
2023-05-04T04:19:30.410Z,45.25
2023-05-04T04:21:59.794Z,45.50
2023-05-04T04:24:26.251Z,45.40
2023-05-04T04:26:52.585Z,45.44
2023-05-04T04:29:18.926Z,45.33
2023-05-04T04:31:45.341Z,45.21
2023-05-04T04:34:11.689Z,45.45
2023-05-04T04:36:38.642Z,45.51
2023-05-04T04:39:06.009Z,45.47
2023-05-04T04:41:32.381Z,45.37
2023-05-04T04:43:58.761Z,45.41
2023-05-04T04:46:25.103Z,45.36
2023-05-04T04:48:53.381Z,45.49
2023-05-04T04:51:19.724Z,45.71
2023-05-04T04:53:46.078Z,45.48
2023-05-04T04:56:12.676Z,45.44
2023-05-04T04:58:39.024Z,45.64
2023-05-04T05:01:05.584Z,45.59
2023-05-04T05:03:31.972Z,45.52
2023-05-04T05:06:01.580Z,45.67
2023-05-04T05:08:27.908Z,45.49
2023-05-04T05:10:54.242Z,45.71
2023-05-04T05:13:20.664Z,45.89
2023-05-04T05:15:47.022Z,46.31
2023-05-04T05:18:13.647Z,46.74
2023-05-04T05:20:39.999Z,46.74
2023-05-04T05:23:06.342Z,47.00
2023-05-04T05:25:33.559Z,47.74
2023-05-04T05:28:00.732Z,47.46
2023-05-04T05:30:28.520Z,46.66
2023-05-04T05:32:55.034Z,46.79
2023-05-04T05:35:21.483Z,46.84
2023-05-04T05:37:48.502Z,46.97
2023-05-04T05:40:15.268Z,46.83
2023-05-04T05:42:45.096Z,46.89
2023-05-04T05:45:11.555Z,47.00
2023-05-04T05:47:37.939Z,47.06
2023-05-04T05:50:04.697Z,46.91
2023-05-04T05:52:31.288Z,46.65
2023-05-04T05:54:58.192Z,46.31
2023-05-04T05:57:25.188Z,45.71
2023-05-04T05:59:51.535Z,47.20
2023-05-04T06:02:17.998Z,45.87
2023-05-04T06:04:47.503Z,44.50
2023-05-04T06:07:13.886Z,44.44
2023-05-04T06:09:40.234Z,43.95
2023-05-04T06:12:12.115Z,42.87
2023-05-04T06:14:39.054Z,42.77
2023-05-04T06:17:05.567Z,41.99
2023-05-04T06:19:36.175Z,42.32
2023-05-04T06:22:02.695Z,42.21
2023-05-04T06:24:29.873Z,41.43
2023-05-04T06:26:56.398Z,41.48
2023-05-04T06:29:22.762Z,41.89
2023-05-04T06:31:49.258Z,41.93
2023-05-04T06:34:16.875Z,41.36
2023-05-04T06:36:43.499Z,41.75
2023-05-04T06:39:10.173Z,41.99
2023-05-04T06:41:37.138Z,42.94
2023-05-04T06:44:04.304Z,43.40
2023-05-04T06:46:30.810Z,43.41
2023-05-04T06:48:58.112Z,43.23
2023-05-04T06:51:24.457Z,43.09
2023-05-04T06:53:50.827Z,43.48
2023-05-04T06:56:17.243Z,43.44
2023-05-04T06:58:43.604Z,43.50
2023-05-04T07:01:10.004Z,43.79
2023-05-04T07:03:37.028Z,43.68
2023-05-04T07:06:03.785Z,43.62
2023-05-04T07:08:30.144Z,43.75
2023-05-04T07:10:56.876Z,43.66
2023-05-04T07:13:23.540Z,43.97
2023-05-04T07:15:49.946Z,44.04
2023-05-04T07:18:16.319Z,44.02
2023-05-04T07:20:42.676Z,43.82
2023-05-04T07:23:09.050Z,44.14
2023-05-04T07:25:35.395Z,43.78
2023-05-04T07:28:01.774Z,43.94
2023-05-04T07:30:28.117Z,44.29
2023-05-04T07:32:54.537Z,44.04
2023-05-04T07:35:20.943Z,44.35
2023-05-04T07:37:47.302Z,44.19
2023-05-04T07:40:14.757Z,44.44
2023-05-04T07:42:41.866Z,44.45
2023-05-04T07:45:08.656Z,44.62
2023-05-04T07:47:35.182Z,43.34
2023-05-04T07:50:01.583Z,42.99
2023-05-04T07:52:27.974Z,42.92
2023-05-04T07:54:54.362Z,43.18
2023-05-04T07:57:20.856Z,44.63
2023-05-04T07:59:47.201Z,44.04
2023-05-04T08:02:13.663Z,43.74
2023-05-04T08:04:40.058Z,43.64
2023-05-04T08:07:06.667Z,43.99
2023-05-04T08:09:33.051Z,43.98
2023-05-04T08:11:59.404Z,44.65
2023-05-04T08:14:25.752Z,44.64
2023-05-04T08:16:52.097Z,45.05
2023-05-04T08:19:18.719Z,45.05
2023-05-04T08:21:45.091Z,45.09
2023-05-04T08:24:11.526Z,44.94
2023-05-04T08:26:38.413Z,45.19
2023-05-04T08:29:05.943Z,45.31
2023-05-04T08:31:32.309Z,45.09
2023-05-04T08:33:58.728Z,45.28
2023-05-04T08:36:26.501Z,45.42
2023-05-04T08:38:53.589Z,45.23
2023-05-04T08:41:19.936Z,45.48
2023-05-04T08:43:49.243Z,45.51
2023-05-04T08:46:16.300Z,45.77
2023-05-04T08:48:44.843Z,43.62
2023-05-04T08:51:11.623Z,41.58
2023-05-04T08:53:39.283Z,40.49
2023-05-04T08:56:09.433Z,40.50
2023-05-04T08:58:37.892Z,39.08
2023-05-04T09:01:04.756Z,38.05
2023-05-04T09:03:31.484Z,37.67
2023-05-04T09:05:58.255Z,39.34
2023-05-04T09:08:24.584Z,38.73
2023-05-04T09:10:50.951Z,38.18
2023-05-04T09:13:17.871Z,38.15
2023-05-04T09:15:53.483Z,37.37
2023-05-04T09:18:19.892Z,37.23
2023-05-04T09:20:49.421Z,36.79
2023-05-04T09:23:16.227Z,36.21
2023-05-04T09:25:48.878Z,36.25
2023-05-04T09:28:15.384Z,36.37
2023-05-04T09:30:41.778Z,35.92
2023-05-04T09:33:08.568Z,36.10
2023-05-04T09:35:35.188Z,38.17
2023-05-04T09:38:01.548Z,38.50
2023-05-04T09:40:31.145Z,38.77
2023-05-04T09:42:57.780Z,38.63
2023-05-04T09:45:24.131Z,38.83
2023-05-04T09:47:53.062Z,39.26
2023-05-04T09:50:22.265Z,39.41
2023-05-04T09:52:49.360Z,39.71
2023-05-04T09:55:16.378Z,39.88
2023-05-04T09:57:42.822Z,40.38
2023-05-04T10:00:13.074Z,40.49
2023-05-04T10:02:39.818Z,40.72
2023-05-04T10:05:06.815Z,40.73
2023-05-04T10:07:35.677Z,40.93
2023-05-04T10:10:02.189Z,40.74
2023-05-04T10:12:28.612Z,40.98
2023-05-04T10:14:54.981Z,41.24
2023-05-04T10:17:27.122Z,41.46
2023-05-04T10:19:56.459Z,41.36
2023-05-04T10:22:28.988Z,41.56
2023-05-04T10:24:59.802Z,41.71
2023-05-04T10:27:44.918Z,41.75
2023-05-04T10:30:11.897Z,41.60
2023-05-04T10:32:40.024Z,41.76
2023-05-04T10:35:07.086Z,41.77
2023-05-04T10:37:33.601Z,41.92
2023-05-04T10:39:59.974Z,41.74
2023-05-04T10:42:26.346Z,41.71
2023-05-04T10:44:53.338Z,41.71
2023-05-04T10:47:32.883Z,41.91
2023-05-04T10:50:08.988Z,41.78
2023-05-04T10:52:48.189Z,41.66
2023-05-04T10:55:14.594Z,41.72
2023-05-04T10:57:50.720Z,41.52
2023-05-04T11:00:17.738Z,40.04
2023-05-04T11:02:44.203Z,36.72
2023-05-04T11:05:17.441Z,38.16
2023-05-04T11:07:43.948Z,37.61
2023-05-04T11:10:20.407Z,40.59
2023-05-04T11:12:46.833Z,40.58
2023-05-04T11:15:13.265Z,40.64
2023-05-04T11:17:49.327Z,40.48
2023-05-04T11:20:27.661Z,40.43
2023-05-04T11:22:54.181Z,40.27
2023-05-04T11:25:26.717Z,40.41
2023-05-04T11:27:53.109Z,39.51
2023-05-04T11:30:19.556Z,38.82
2023-05-04T11:32:54.021Z,37.26
2023-05-04T11:35:22.650Z,35.46
2023-05-04T11:37:50.568Z,37.00
2023-05-04T11:40:18.167Z,39.73
2023-05-04T11:42:44.548Z,39.59
2023-05-04T11:45:15.615Z,39.58
2023-05-04T11:47:41.975Z,38.34
2023-05-04T11:50:09.228Z,38.06
2023-05-04T11:52:36.461Z,38.79
2023-05-04T11:55:03.233Z,39.20
2023-05-04T11:57:31.731Z,38.17
2023-05-04T11:59:58.099Z,37.14
2023-05-04T12:02:25.827Z,40.31
2023-05-04T12:04:52.405Z,39.67
2023-05-04T12:07:18.772Z,39.25
2023-05-04T12:09:45.850Z,38.40
2023-05-04T12:12:12.196Z,38.93
2023-05-04T12:14:54.467Z,39.21
2023-05-04T12:17:20.935Z,38.53
2023-05-04T12:19:50.448Z,38.29
2023-05-04T12:22:16.831Z,37.59
2023-05-04T12:24:43.177Z,36.92
2023-05-04T12:27:13.510Z,36.49
2023-05-04T12:29:39.915Z,35.22
2023-05-04T12:32:06.492Z,35.27
2023-05-04T12:34:32.878Z,36.87
2023-05-04T12:36:59.512Z,37.19
2023-05-04T12:39:26.466Z,35.67
2023-05-04T12:41:53.442Z,33.94
2023-05-04T12:44:19.847Z,34.02
2023-05-04T12:46:46.241Z,33.79
2023-05-04T12:49:14.154Z,33.21
2023-05-04T12:51:40.524Z,32.51
2023-05-04T12:54:07.121Z,32.21
2023-05-04T12:56:33.484Z,31.76
2023-05-04T12:59:00.012Z,31.79
2023-05-04T13:01:27.475Z,31.24
2023-05-04T13:03:53.921Z,31.97
2023-05-04T13:06:20.286Z,32.08
2023-05-04T13:08:47.208Z,32.28
2023-05-04T13:11:14.491Z,31.56
2023-05-04T13:13:41.353Z,30.83
2023-05-04T13:16:07.723Z,31.19
2023-05-04T13:18:34.133Z,30.59
2023-05-04T13:21:00.598Z,30.95
2023-05-04T13:23:27.000Z,30.85
2023-05-04T13:25:53.459Z,30.97
2023-05-04T13:28:19.821Z,31.43
2023-05-04T13:30:46.332Z,31.47
2023-05-04T13:33:24.992Z,31.90
2023-05-04T13:35:56.832Z,32.30
2023-05-04T13:38:23.185Z,32.89
2023-05-04T13:40:49.528Z,32.59
2023-05-04T13:43:15.883Z,32.42
2023-05-04T13:45:42.242Z,32.25
2023-05-04T13:48:08.713Z,32.09
2023-05-04T13:50:35.090Z,31.44
2023-05-04T13:53:02.655Z,31.83
2023-05-04T13:55:28.996Z,32.63
2023-05-04T13:57:55.349Z,32.91
2023-05-04T14:00:22.010Z,33.03
2023-05-04T14:02:48.386Z,33.20
2023-05-04T14:05:14.836Z,32.53
2023-05-04T14:07:41.258Z,32.53
2023-05-04T14:10:07.825Z,32.04
2023-05-04T14:12:34.773Z,32.49
2023-05-04T14:15:01.385Z,32.77
2023-05-04T14:17:27.820Z,32.38
2023-05-04T14:19:54.162Z,32.99
2023-05-04T14:22:20.517Z,32.32
2023-05-04T14:24:46.881Z,32.06
2023-05-04T14:27:13.216Z,33.76
2023-05-04T14:29:39.570Z,32.52
2023-05-04T14:32:05.984Z,33.62
2023-05-04T14:34:32.723Z,33.15
2023-05-04T14:36:59.084Z,33.39
2023-05-04T14:39:25.424Z,33.07
2023-05-04T14:41:52.857Z,33.85
2023-05-04T14:44:20.131Z,32.99
2023-05-04T14:46:46.502Z,33.42
2023-05-04T14:49:21.558Z,32.22
2023-05-04T14:51:55.006Z,33.13
2023-05-04T14:54:21.326Z,33.92
2023-05-04T14:56:47.676Z,32.46
2023-05-04T14:59:14.018Z,33.15
2023-05-04T15:01:40.430Z,33.66
2023-05-04T15:04:06.792Z,33.49
2023-05-04T15:06:33.888Z,33.37
2023-05-04T15:09:00.223Z,32.71
2023-05-04T15:11:26.582Z,32.01
2023-05-04T15:13:55.641Z,32.79
2023-05-04T15:16:22.042Z,32.39
2023-05-04T15:18:48.473Z,31.83
2023-05-04T15:21:14.833Z,32.75
2023-05-04T15:23:41.171Z,32.93
2023-05-04T15:26:07.662Z,31.38
2023-05-04T15:28:34.037Z,31.79
2023-05-04T15:31:01.855Z,31.76
2023-05-04T15:33:28.241Z,32.62
2023-05-04T15:35:54.581Z,32.76
2023-05-04T15:38:20.931Z,31.53
2023-05-04T15:40:47.269Z,31.52
2023-05-04T15:43:14.117Z,31.19
2023-05-04T15:45:40.606Z,31.75
2023-05-04T15:48:07.104Z,31.40
2023-05-04T15:50:33.597Z,31.44
2023-05-04T15:52:59.953Z,30.81
2023-05-04T15:55:26.810Z,30.94
2023-05-04T15:57:54.029Z,31.26
2023-05-04T16:00:21.127Z,31.25
2023-05-04T16:02:47.609Z,31.15
2023-05-04T16:05:14.031Z,31.79
2023-05-04T16:07:40.722Z,31.64
2023-05-04T16:10:07.483Z,32.97
2023-05-04T16:12:34.340Z,33.13
2023-05-04T16:15:00.778Z,33.55
2023-05-04T16:17:29.094Z,33.69
2023-05-04T16:19:55.690Z,34.45
2023-05-04T16:22:22.028Z,34.19
2023-05-04T16:24:48.484Z,34.34
2023-05-04T16:27:14.869Z,34.89
2023-05-04T16:29:41.241Z,35.13
2023-05-04T16:32:08.258Z,35.58
2023-05-04T16:34:34.628Z,35.93
2023-05-04T16:37:01.206Z,36.19
2023-05-04T16:39:31.320Z,36.48
2023-05-04T16:41:57.955Z,36.77
2023-05-04T16:44:24.309Z,36.88
2023-05-04T16:46:51.609Z,37.28
2023-05-04T16:49:18.096Z,37.19
2023-05-04T16:51:44.485Z,37.43
2023-05-04T16:54:10.971Z,37.44
2023-05-04T16:56:37.313Z,37.66
2023-05-04T16:59:04.092Z,37.64
2023-05-04T17:01:30.470Z,37.78
2023-05-04T17:03:57.000Z,37.88
2023-05-04T17:06:23.394Z,37.99
2023-05-04T17:08:49.738Z,38.20
2023-05-04T17:11:16.141Z,38.19
2023-05-04T17:13:42.479Z,38.38
2023-05-04T17:16:09.136Z,38.48
2023-05-04T17:18:35.634Z,38.63
2023-05-04T17:21:01.976Z,38.60
2023-05-04T17:23:28.322Z,38.79
2023-05-04T17:25:56.849Z,38.72
2023-05-04T17:28:23.252Z,39.08
2023-05-04T17:30:49.616Z,39.17
2023-05-04T17:33:15.994Z,39.02
2023-05-04T17:35:42.374Z,38.94
2023-05-04T17:38:08.698Z,38.56
2023-05-04T17:40:35.074Z,38.67
2023-05-04T17:43:01.549Z,38.80
2023-05-04T17:45:27.911Z,38.70
2023-05-04T17:47:54.528Z,38.83
2023-05-04T17:50:21.047Z,39.15
2023-05-04T17:52:56.877Z,39.36
2023-05-04T17:55:24.429Z,39.74
2023-05-04T17:57:51.705Z,39.74
2023-05-04T18:00:18.106Z,39.85
2023-05-04T18:02:44.631Z,40.02
2023-05-04T18:05:11.156Z,39.92
2023-05-04T18:07:37.561Z,40.10
2023-05-04T18:10:03.997Z,40.20
2023-05-04T18:12:30.434Z,40.29
2023-05-04T18:14:56.826Z,40.31
2023-05-04T18:17:23.177Z,40.28
2023-05-04T18:19:49.537Z,40.57
2023-05-04T18:22:15.987Z,40.83
2023-05-04T18:24:42.359Z,40.77
2023-05-04T18:27:08.854Z,40.96
2023-05-04T18:29:36.076Z,40.93
2023-05-04T18:32:07.740Z,41.15
2023-05-04T18:34:34.384Z,41.77
2023-05-04T18:37:00.868Z,41.63
2023-05-04T18:39:27.242Z,41.54
2023-05-04T18:41:53.593Z,41.58
2023-05-04T18:44:19.956Z,41.76
2023-05-04T18:46:46.364Z,42.02
2023-05-04T18:49:12.840Z,42.05
2023-05-04T18:51:41.662Z,42.16
2023-05-04T18:54:08.411Z,42.25
2023-05-04T18:56:34.758Z,42.36
2023-05-04T18:59:01.160Z,42.43
2023-05-04T19:01:27.843Z,42.46
2023-05-04T19:03:54.363Z,42.48
2023-05-04T19:06:20.751Z,42.47
2023-05-04T19:08:47.088Z,42.23
2023-05-04T19:11:13.429Z,42.44
2023-05-04T19:13:39.797Z,42.24
2023-05-04T19:16:06.571Z,42.32
2023-05-04T19:18:33.524Z,42.66
2023-05-04T19:21:03.550Z,42.62
2023-05-04T19:23:29.922Z,42.68
2023-05-04T19:25:56.522Z,42.66
2023-05-04T19:28:23.022Z,42.69
2023-05-04T19:30:49.422Z,42.57
2023-05-04T19:33:16.610Z,42.81
2023-05-04T19:35:42.978Z,42.83
2023-05-04T19:38:09.342Z,42.85
2023-05-04T19:40:35.734Z,42.69
2023-05-04T19:43:02.266Z,42.96
2023-05-04T19:45:28.704Z,42.84
2023-05-04T19:47:55.091Z,42.88
2023-05-04T19:50:21.472Z,43.04
2023-05-04T19:52:47.828Z,42.79
2023-05-04T19:55:14.257Z,42.75
2023-05-04T19:57:40.758Z,42.96
2023-05-04T20:00:09.712Z,42.93
2023-05-04T20:02:39.355Z,42.89
2023-05-04T20:05:05.884Z,42.98
2023-05-04T20:07:32.293Z,42.83
2023-05-04T20:09:58.891Z,42.94
2023-05-04T20:12:26.452Z,43.04
2023-05-04T20:14:52.784Z,43.04
2023-05-04T20:17:19.132Z,42.97
2023-05-04T20:19:46.148Z,42.85
2023-05-04T20:22:12.492Z,42.78
2023-05-04T20:24:38.807Z,42.70
2023-05-04T20:27:05.341Z,42.84
2023-05-04T20:29:32.164Z,42.79
2023-05-04T20:32:01.275Z,43.07
2023-05-04T20:34:27.741Z,43.20
2023-05-04T20:36:54.301Z,42.99
2023-05-04T20:39:21.536Z,43.08
2023-05-04T20:41:49.744Z,43.03
2023-05-04T20:44:19.306Z,43.28
2023-05-04T20:46:45.670Z,43.09
2023-05-04T20:49:12.265Z,43.30
2023-05-04T20:51:38.676Z,43.05
2023-05-04T20:54:05.154Z,43.26
2023-05-04T20:56:31.519Z,43.34
2023-05-04T20:58:57.870Z,43.41
2023-05-04T21:01:24.293Z,43.23
2023-05-04T21:03:50.916Z,43.61
2023-05-04T21:06:17.370Z,43.56
2023-05-04T21:08:43.747Z,43.25
2023-05-04T21:11:10.129Z,43.19
2023-05-04T21:13:36.506Z,43.47
2023-05-04T21:16:02.953Z,43.32
2023-05-04T21:18:29.343Z,43.28
2023-05-04T21:20:55.701Z,43.48
2023-05-04T21:23:22.090Z,43.69
2023-05-04T21:25:48.433Z,43.72
2023-05-04T21:28:14.790Z,43.34
2023-05-04T21:30:41.879Z,43.60
2023-05-04T21:33:08.222Z,43.59
2023-05-04T21:35:34.565Z,43.67
2023-05-04T21:38:00.912Z,43.70
2023-05-04T21:40:27.520Z,43.45
2023-05-04T21:42:53.905Z,43.72
2023-05-04T21:45:20.274Z,43.69
2023-05-04T21:47:46.847Z,43.68
2023-05-04T21:50:13.250Z,43.45
2023-05-04T21:52:39.611Z,43.70
2023-05-04T21:55:06.206Z,43.73
2023-05-04T21:57:33.302Z,43.78
2023-05-04T21:59:59.800Z,43.92
2023-05-04T22:02:26.197Z,43.83
2023-05-04T22:04:52.696Z,43.95
2023-05-04T22:07:19.180Z,43.85
2023-05-04T22:09:45.551Z,43.71
2023-05-04T22:12:11.923Z,43.99
2023-05-04T22:14:39.911Z,43.75
2023-05-04T22:17:07.722Z,44.02
2023-05-04T22:19:34.101Z,43.84
2023-05-04T22:22:00.446Z,43.90
2023-05-04T22:24:26.813Z,44.02
2023-05-04T22:26:53.147Z,44.09
2023-05-04T22:29:19.568Z,44.11
2023-05-04T22:31:45.937Z,43.98
2023-05-04T22:34:12.294Z,44.12
2023-05-04T22:36:38.647Z,44.14
2023-05-04T22:39:04.987Z,43.94
2023-05-04T22:41:31.373Z,44.14
2023-05-04T22:43:57.722Z,44.12
2023-05-04T22:46:25.459Z,44.07
2023-05-04T22:48:51.993Z,43.98
2023-05-04T22:51:18.339Z,44.00
2023-05-04T22:53:44.899Z,44.06
2023-05-04T22:56:11.393Z,44.11
2023-05-04T22:58:37.730Z,44.05
2023-05-04T23:01:08.089Z,44.09
2023-05-04T23:03:34.869Z,44.17
2023-05-04T23:06:01.377Z,43.98
2023-05-04T23:08:27.835Z,44.20
2023-05-04T23:10:54.187Z,44.17
2023-05-04T23:13:20.527Z,43.99
2023-05-04T23:15:46.904Z,44.23
2023-05-04T23:18:13.256Z,44.27
2023-05-04T23:20:39.601Z,44.37
2023-05-04T23:23:06.011Z,44.07
2023-05-04T23:25:32.335Z,44.32
2023-05-04T23:27:58.647Z,43.96
2023-05-04T23:30:24.986Z,43.94
2023-05-04T23:32:51.341Z,43.61
2023-05-04T23:35:17.710Z,43.79
2023-05-04T23:37:44.039Z,43.55
2023-05-04T23:40:10.513Z,43.63
2023-05-04T23:42:37.463Z,43.97
2023-05-04T23:45:04.863Z,44.42
2023-05-04T23:47:31.244Z,44.61
2023-05-04T23:49:57.623Z,44.57
2023-05-04T23:52:23.970Z,44.93
2023-05-04T23:54:53.636Z,44.72
2023-05-04T23:57:19.991Z,44.78
2023-05-04T23:59:46.337Z,44.82
